Blanco, NM (87412)

7:07 AM MDT on July 29, 2016 (GMT -0600)
RAWS | | Change Station

Elev 5723 ft 36.80 °N, 107.73 °W | Updated 52 minutes ago

Clear
Clear
68.0 °F
Feels Like 68.0 °F
N
4.0
Wind Variable Wind from ENE
Gusts 10.0 mph

Today
High -- | Low -- °F
--% Chance of Precip.
Yesterday
High -- | Low -- °F
Precip. -- in
Pressure 29.97 in
Visibility 10.0 miles
Clouds Clear
Dew Point 40.0 °F
Humidity 36%
Rainfall in
Snow Depth Not available.
6:14 AM 8:19 PM
Waning Crescent, 22% visible
METAR KDRO 291253Z AUTO 01005KT 10SM CLR 14/03 A3026 RMK AO2 SLP148 T01390033
Pressure 29.97 in
Visibility 10.0 miles
Clouds Clear
Dew Point 40.0 °F
Humidity 36%
Rainfall in
Snow Depth Not available.
6:14 AM 8:19 PM
Waning Crescent, 22% visible
METAR KDRO 291253Z AUTO 01005KT 10SM CLR 14/03 A3026 RMK AO2 SLP148 T01390033

10-Day Weather Forecast

Almanac

Astronomy

Jul. 29, 2016 Rise Set
Actual Time
Civil Twilight
Nautical Twilight
Astronomical Twilight
Moon
Length of Visible Light
Length of Day
Tomorrow will be .
, % of the Moon is Illuminated

Today's Extremes

State Highs State Lows

Community

WunderPhotos

Upload Photos

1,928,336 photos uploaded!

WunderBlog® & News

Nearby

Air Quality

  Air Quality AQ Index Pollutant
Not available.

Snow Depth

Station Depth Elevation

Earthquake Activity

City Distance Mag. Time & Date
Minimum magnitude displayed is 2.5.

Coastal Water Temperatures

Place Temperature

Stations

Nearby Weather Stations

Station Location Temp. Windchill Dew Point Humidity Wind Precip. Elev Updated Type
                   

Watches & Warnings

There are currently no watches in effect.